Time;durP1;ratioP1;P1;durP2;ratioP2;P2;SDS_P1;SDS_P2;PMS_P1;PMS_P2;Temp;Humidity;BMP_temperature;BMP_pressure;BME280_temperature;BME280_humidity;BME280_pressure;Samples;Min_cycle;Max_cycle;Signal;HPM_P1;HPM_P2
2023/08/21 00:00:16;;;;;;;5.95;3.10;;;;;;;20.18;65.42;101635.00;676725;29;1800;-77
2023/08/21 00:00:37;;;;;;;5.80;3.10;;;;;;;20.12;65.40;101622.63;677570;29;1175;-77
2023/08/21 00:00:57;;;;;;;6.30;3.27;;;;;;;20.12;65.36;101614.66;678095;29;1037;-77
2023/08/21 00:01:18;;;;;;;7.93;3.30;;;;;;;20.13;65.38;101619.13;682546;28;1437;-77
2023/08/21 00:01:39;;;;;;;8.82;3.50;;;;;;;20.13;65.42;101623.50;682266;29;1247;-77
2023/08/21 00:01:59;;;;;;;8.23;3.20;;;;;;;20.17;65.43;101627.94;683206;28;1200;-77
2023/08/21 00:02:20;;;;;;;6.50;3.10;;;;;;;20.09;65.44;101611.13;687658;28;1737;-77
2023/08/21 00:02:41;;;;;;;5.93;3.00;;;;;;;20.21;65.24;101626.16;685416;28;1195;-77
2023/08/21 00:03:02;;;;;;;6.95;3.28;;;;;;;20.13;65.10;101612.91;682458;29;1050;-77
2023/08/21 00:03:22;;;;;;;11.10;3.50;;;;;;;20.14;65.17;101617.31;684895;28;1436;-77
2023/08/21 00:03:43;;;;;;;10.70;3.55;;;;;;;20.25;65.21;101634.16;685192;28;1116;-77
2023/08/21 00:04:04;;;;;;;10.10;3.38;;;;;;;20.22;65.08;101612.06;682529;29;1099;-77
2023/08/21 00:04:25;;;;;;;8.68;3.50;;;;;;;20.19;65.10;101619.97;679992;29;1007;-77
2023/08/21 00:04:45;;;;;;;8.17;3.30;;;;;;;20.11;65.23;101612.91;684273;28;1218;-77
2023/08/21 00:05:06;;;;;;;9.38;3.38;;;;;;;20.15;65.18;101619.09;685373;28;1029;-77
2023/08/21 00:05:27;;;;;;;7.03;3.20;;;;;;;20.08;65.06;101606.72;685273;28;1030;-77
2023/08/21 00:05:48;;;;;;;7.57;3.10;;;;;;;20.08;65.09;101614.66;684888;28;1528;-77
2023/08/21 00:06:08;;;;;;;6.43;3.10;;;;;;;20.15;65.13;101629.69;685717;28;992;-77
2023/08/21 00:06:29;;;;;;;6.20;3.00;;;;;;;20.13;65.08;101621.75;688376;28;1332;-77
2023/08/21 00:06:50;;;;;;;6.13;3.22;;;;;;;20.06;64.87;101611.13;687136;28;1468;-77
2023/08/21 00:07:11;;;;;;;5.38;3.00;;;;;;;20.12;65.07;101624.41;687045;28;1430;-77
2023/08/21 00:07:32;;;;;;;5.32;3.10;;;;;;;20.04;65.03;101611.13;684786;28;984;-77
2023/08/21 00:07:52;;;;;;;5.20;3.20;;;;;;;20.09;64.94;101621.72;684741;28;1493;-78
2023/08/21 00:08:13;;;;;;;5.75;3.50;;;;;;;20.08;65.01;101618.22;687784;28;1527;-77
2023/08/21 00:08:34;;;;;;;7.07;3.60;;;;;;;20.05;65.01;101614.66;685571;28;1085;-77
2023/08/21 00:08:55;;;;;;;8.55;3.80;;;;;;;20.09;64.93;101622.63;684697;28;1450;-77
2023/08/21 00:09:15;;;;;;;10.90;3.80;;;;;;;20.10;64.90;101627.03;677121;29;1205;-76
2023/08/21 00:09:36;;;;;;;10.60;3.67;;;;;;;20.00;64.94;101604.06;679957;29;1187;-77
2023/08/21 00:09:57;;;;;;;8.55;3.58;;;;;;;20.06;65.09;101624.38;679756;29;1797;-77
2023/08/21 00:10:17;;;;;;;6.85;3.70;;;;;;;20.06;65.09;101612.03;684706;28;1370;-76
2023/08/21 00:10:38;;;;;;;5.63;3.80;;;;;;;19.98;65.09;101604.06;685150;28;1407;-76
2023/08/21 00:10:59;;;;;;;8.63;3.97;;;;;;;20.00;65.07;101602.28;684929;28;1089;-77
2023/08/21 00:11:20;;;;;;;8.90;3.60;;;;;;;20.05;64.83;101618.22;680437;28;1080;-76
2023/08/21 00:11:40;;;;;;;9.60;3.55;;;;;;;20.03;65.10;101613.78;681324;28;1238;-76
2023/08/21 00:12:01;;;;;;;9.17;3.50;;;;;;;20.03;65.14;101611.16;681247;29;1725;-77
2023/08/21 00:12:22;;;;;;;8.68;3.58;;;;;;;20.03;65.11;101613.78;682187;28;1351;-76
2023/08/21 00:12:42;;;;;;;7.63;3.25;;;;;;;19.98;64.88;101605.84;684931;28;1474;-77
2023/08/21 00:13:03;;;;;;;4.80;3.10;;;;;;;20.06;65.02;101616.44;683665;28;1029;-77
2023/08/21 00:13:24;;;;;;;4.10;3.20;;;;;;;19.96;65.00;101608.47;687918;28;976;-76
2023/08/21 00:13:47;;;;;;;5.50;3.30;;;;;;;19.97;64.83;101614.63;685974;28;1170;-76
2023/08/21 00:14:08;;;;;;;5.85;3.33;;;;;;;19.93;64.84;101608.47;682563;29;1138;-77
2023/08/21 00:14:28;;;;;;;6.32;3.20;;;;;;;19.93;64.92;101607.56;681514;29;1395;-78
2023/08/21 00:14:49;;;;;;;7.68;3.33;;;;;;;19.93;64.87;101613.78;684935;28;1135;-76
2023/08/21 00:15:10;;;;;;;7.80;3.13;;;;;;;19.93;64.83;101616.44;682625;28;1141;-76
2023/08/21 00:15:30;;;;;;;9.88;3.13;;;;;;;19.94;64.79;101619.94;687716;28;1492;-76
2023/08/21 00:15:51;;;;;;;8.45;3.10;;;;;;;19.89;64.98;101614.63;688343;28;1660;-76
2023/08/21 00:16:12;;;;;;;8.40;3.40;;;;;;;19.94;64.90;101628.78;687936;28;1076;-77
2023/08/21 00:16:34;;;;;;;7.27;3.80;;;;;;;19.95;65.15;101627.91;683102;28;1353;-76
2023/08/21 00:16:55;;;;;;;6.28;3.60;;;;;;;19.92;65.16;101619.06;682074;29;1540;-76
2023/08/21 00:17:15;;;;;;;6.43;3.70;;;;;;;19.91;65.36;101622.59;682571;29;1225;-76
2023/08/21 00:17:36;;;;;;;6.25;3.70;;;;;;;19.94;65.28;101620.84;685039;28;1049;-77
2023/08/21 00:17:57;;;;;;;8.83;4.10;;;;;;;19.88;65.19;101610.22;685272;28;1021;-76
2023/08/21 00:18:17;;;;;;;9.45;4.07;;;;;;;19.89;65.30;101622.59;687959;28;1035;-76
2023/08/21 00:18:38;;;;;;;9.55;3.97;;;;;;;19.93;65.36;101621.72;686768;28;1385;-76
2023/08/21 00:18:59;;;;;;;7.90;3.90;;;;;;;19.99;65.44;101634.97;684650;28;1389;-75
2023/08/21 00:19:19;;;;;;;7.90;4.00;;;;;;;19.92;65.54;101627.00;679587;29;1922;-76
2023/08/21 00:19:40;;;;;;;7.18;3.63;;;;;;;19.85;65.43;101612.81;682660;29;898;-77
2023/08/21 00:20:01;;;;;;;5.73;3.40;;;;;;;19.91;65.45;101618.16;682473;29;1002;-76
2023/08/21 00:20:22;;;;;;;7.47;3.30;;;;;;;19.89;65.39;101617.28;685195;28;1204;-76
2023/08/21 00:20:43;;;;;;;8.30;3.60;;;;;;;20.01;65.63;101648.22;687867;28;1111;-77
2023/08/21 00:21:03;;;;;;;8.77;3.55;;;;;;;19.94;65.62;101634.09;682104;29;1529;-76
2023/08/21 00:21:24;;;;;;;7.18;3.50;;;;;;;19.95;65.54;101627.00;685189;28;1020;-76
2023/08/21 00:21:45;;;;;;;9.27;3.50;;;;;;;19.97;65.40;101626.13;685284;28;965;-77
2023/08/21 00:22:05;;;;;;;9.67;3.60;;;;;;;19.94;65.52;101623.50;684870;28;1810;-77
2023/08/21 00:22:26;;;;;;;10.55;3.70;;;;;;;19.90;65.53;101610.25;690558;28;1101;-76
2023/08/21 00:22:47;;;;;;;7.97;3.70;;;;;;;20.00;65.55;101641.16;687703;28;1190;-77
2023/08/21 00:23:08;;;;;;;8.13;3.53;;;;;;;19.95;65.65;101622.59;682211;29;1828;-77
2023/08/21 00:23:29;;;;;;;7.80;3.42;;;;;;;19.91;65.64;101615.50;679828;28;1272;-76
2023/08/21 00:23:49;;;;;;;7.37;3.30;;;;;;;19.94;65.58;101626.13;677344;29;1132;-76
2023/08/21 00:24:11;;;;;;;10.50;3.50;;;;;;;19.97;65.62;101626.13;674523;29;1813;-77
2023/08/21 00:24:31;;;;;;;10.77;3.70;;;;;;;19.99;65.57;101634.97;677302;29;1272;-77
2023/08/21 00:24:52;;;;;;;10.70;3.65;;;;;;;19.94;65.57;101627.88;677293;29;999;-77
2023/08/21 00:25:13;;;;;;;5.57;3.22;;;;;;;19.93;65.49;101619.06;677024;29;1642;-77
2023/08/21 00:25:33;;;;;;;6.47;3.30;;;;;;;20.03;65.52;101634.97;679575;29;1059;-76
2023/08/21 00:25:54;;;;;;;8.55;3.45;;;;;;;19.92;65.58;101617.28;677039;29;1399;-77
2023/08/21 00:26:14;;;;;;;9.30;3.50;;;;;;;19.92;65.42;101621.72;674727;29;991;-76
2023/08/21 00:26:35;;;;;;;7.88;3.25;;;;;;;19.93;65.54;101619.06;679948;29;1471;-77
2023/08/21 00:26:56;;;;;;;6.82;3.30;;;;;;;20.03;65.57;101640.28;682195;28;1699;-77
2023/08/21 00:27:17;;;;;;;8.25;3.60;;;;;;;19.93;65.43;101624.38;682421;29;1060;-77
2023/08/21 00:27:37;;;;;;;8.50;3.60;;;;;;;19.92;65.40;101622.56;682848;28;957;-76
2023/08/21 00:27:58;;;;;;;7.95;3.50;;;;;;;19.96;65.33;101629.66;682579;28;1072;-77
2023/08/21 00:28:19;;;;;;;7.30;3.20;;;;;;;19.95;65.27;101629.66;682472;29;1028;-77
2023/08/21 00:28:39;;;;;;;6.63;3.08;;;;;;;19.91;65.42;101623.47;682571;28;1382;-77
2023/08/21 00:29:00;;;;;;;7.00;3.20;;;;;;;19.93;65.27;101624.38;683468;28;1033;-77
2023/08/21 00:29:21;;;;;;;5.72;3.13;;;;;;;20.02;65.30;101638.53;682471;29;1120;-77
2023/08/21 00:29:42;;;;;;;7.38;3.30;;;;;;;19.95;65.37;101633.19;681914;28;1569;-77
2023/08/21 00:30:03;;;;;;;7.93;3.10;;;;;;;19.95;65.11;101633.19;682556;29;1080;-77
2023/08/21 00:30:24;;;;;;;9.40;3.40;;;;;;;19.98;65.11;101638.50;682424;29;1084;-77
2023/08/21 00:30:44;;;;;;;8.40;3.30;;;;;;;19.92;65.15;101630.53;680931;29;1478;-77
2023/08/21 00:31:06;;;;;;;7.60;3.40;;;;;;;19.99;65.02;101645.56;679817;28;1223;-77
2023/08/21 00:31:26;;;;;;;6.40;3.20;;;;;;;19.91;64.92;101619.94;680002;29;969;-77
2023/08/21 00:31:47;;;;;;;5.60;3.20;;;;;;;19.94;65.09;101634.09;679561;28;1438;-77
2023/08/21 00:32:08;;;;;;;5.30;3.40;;;;;;;19.92;64.92;101627.00;679772;29;1130;-76
2023/08/21 00:32:29;;;;;;;5.30;3.60;;;;;;;19.92;64.69;101630.53;677342;29;971;-77
2023/08/21 00:32:50;;;;;;;6.63;3.70;;;;;;;19.85;64.92;101619.00;682377;29;1100;-77
2023/08/21 00:33:10;;;;;;;7.10;3.60;;;;;;;20.00;64.94;101649.09;678866;29;1070;-77
2023/08/21 00:33:32;;;;;;;7.57;3.60;;;;;;;19.95;65.07;101634.94;677316;29;1163;-78
2023/08/21 00:33:52;;;;;;;6.22;3.50;;;;;;;19.90;64.91;101632.28;684920;28;1496;-77
2023/08/21 00:34:14;;;;;;;10.85;3.70;;;;;;;19.97;65.09;101642.03;686901;28;1229;-77
2023/08/21 00:34:35;;;;;;;11.93;3.60;;;;;;;19.92;65.06;101638.47;686189;28;980;-77
2023/08/21 00:34:56;;;;;;;12.27;3.70;;;;;;;19.96;65.08;101645.56;684682;28;1043;-77
2023/08/21 00:35:16;;;;;;;7.88;3.53;;;;;;;19.92;65.12;101633.16;679261;28;1497;-77
2023/08/21 00:35:37;;;;;;;8.95;3.50;;;;;;;19.92;65.07;101638.47;681816;29;1099;-77
2023/08/21 00:35:58;;;;;;;9.80;3.35;;;;;;;19.92;65.22;101643.78;682373;29;1202;-77
2023/08/21 00:36:20;;;;;;;8.90;3.30;;;;;;;19.90;65.02;101640.25;679545;29;1122;-77
2023/08/21 00:36:40;;;;;;;11.35;3.65;;;;;;;19.95;65.03;101648.19;677126;29;1152;-77
2023/08/21 00:37:01;;;;;;;11.27;4.10;;;;;;;19.92;65.09;101643.78;676973;29;1012;-77
2023/08/21 00:37:21;;;;;;;11.73;3.90;;;;;;;19.93;65.16;101644.66;681928;28;1458;-77
2023/08/21 00:37:42;;;;;;;7.05;3.42;;;;;;;19.93;65.08;101639.38;679878;29;1209;-76
2023/08/21 00:38:03;;;;;;;7.45;3.20;;;;;;;19.95;65.02;101646.44;679945;29;1184;-76
2023/08/21 00:38:24;;;;;;;6.90;3.20;;;;;;;19.92;64.96;101643.78;681728;29;1410;-76
2023/08/21 00:38:45;;;;;;;7.03;3.40;;;;;;;19.94;65.00;101652.63;677130;29;1131;-76
2023/08/21 00:39:07;;;;;;;6.35;3.30;;;;;;;19.87;65.01;101642.84;683212;28;1914;-76
2023/08/21 00:39:28;;;;;;;5.85;3.08;;;;;;;20.00;64.88;101654.41;685611;28;1461;-76
2023/08/21 00:39:49;;;;;;;5.27;3.10;;;;;;;19.95;64.81;101642.91;690453;28;1054;-76
2023/08/21 00:40:10;;;;;;;4.63;3.00;;;;;;;19.89;64.88;101635.81;681591;29;1371;-76
2023/08/21 00:40:31;;;;;;;4.88;3.00;;;;;;;19.99;64.77;101657.94;679367;29;1311;-76
2023/08/21 00:40:52;;;;;;;6.07;3.10;;;;;;;19.93;64.69;101640.25;677183;29;1509;-76
2023/08/21 00:41:13;;;;;;;6.88;3.25;;;;;;;19.92;64.84;101638.47;685138;28;1138;-76
2023/08/21 00:41:34;;;;;;;6.97;3.40;;;;;;;19.94;64.83;101635.84;686205;28;1150;-77
2023/08/21 00:41:55;;;;;;;6.40;3.40;;;;;;;19.95;64.64;101640.25;690368;28;1434;-76
2023/08/21 00:42:15;;;;;;;9.43;3.50;;;;;;;19.97;64.63;101642.03;685111;28;1399;-77
2023/08/21 00:42:36;;;;;;;10.40;3.40;;;;;;;19.97;64.83;101641.13;681206;28;1092;-77
2023/08/21 00:42:57;;;;;;;9.45;3.30;;;;;;;19.92;64.70;101633.16;679991;29;1294;-77
2023/08/21 00:43:17;;;;;;;7.90;3.30;;;;;;;19.98;64.75;101643.78;682425;29;1116;-77
2023/08/21 00:43:38;;;;;;;11.73;3.38;;;;;;;19.96;64.74;101636.72;681784;29;1127;-76
2023/08/21 00:43:59;;;;;;;12.20;3.30;;;;;;;19.98;64.63;101640.28;684023;28;1528;-77
2023/08/21 00:44:19;;;;;;;10.70;3.17;;;;;;;19.93;64.61;101634.97;685134;28;986;-77
2023/08/21 00:44:40;;;;;;;5.75;3.30;;;;;;;19.94;64.60;101630.53;688054;28;1044;-77
2023/08/21 00:45:01;;;;;;;5.40;3.30;;;;;;;19.92;64.84;101627.88;682176;28;1408;-77
2023/08/21 00:45:21;;;;;;;6.60;3.50;;;;;;;19.95;64.66;101633.19;682864;28;1005;-77
2023/08/21 00:45:44;;;;;;;7.10;3.30;;;;;;;19.99;64.57;101634.97;681927;28;1086;-77
2023/08/21 00:46:05;;;;;;;8.75;3.22;;;;;;;19.98;64.59;101634.97;679656;29;1783;-77
2023/08/21 00:46:26;;;;;;;8.98;3.10;;;;;;;20.02;64.62;101644.69;682430;29;989;-77
2023/08/21 00:46:47;;;;;;;8.05;3.30;;;;;;;19.97;64.60;101634.06;681959;29;1269;-77
2023/08/21 00:47:10;;;;;;;5.93;3.30;;;;;;;19.98;64.46;101630.53;682067;29;1110;-77
2023/08/21 00:47:30;;;;;;;6.28;3.58;;;;;;;19.94;64.43;101627.88;682563;28;1053;-76
2023/08/21 00:47:51;;;;;;;6.50;3.50;;;;;;;19.96;64.54;101627.03;680904;29;1157;-77
2023/08/21 00:48:13;;;;;;;7.70;3.50;;;;;;;19.97;64.52;101633.19;678681;29;1724;-77
2023/08/21 00:48:36;;;;;;;7.45;3.20;;;;;;;20.02;64.44;101634.09;683208;28;1049;-77
2023/08/21 00:48:57;;;;;;;8.52;3.20;;;;;;;19.98;64.41;101633.19;685209;28;1061;-77
2023/08/21 00:49:19;;;;;;;10.18;3.20;;;;;;;19.96;64.37;101621.72;684789;28;1069;-77
2023/08/21 00:49:40;;;;;;;9.57;3.20;;;;;;;19.95;64.18;101616.41;685563;28;908;-78
2023/08/21 00:50:01;;;;;;;7.43;3.17;;;;;;;19.99;64.16;101628.78;680483;28;1304;-77
2023/08/21 00:50:22;;;;;;;8.48;3.10;;;;;;;20.02;64.18;101633.22;677280;29;1191;-77
2023/08/21 00:50:44;;;;;;;8.68;3.20;;;;;;;20.04;64.26;101631.44;683112;28;1100;-76
2023/08/21 00:51:06;;;;;;;7.80;3.00;;;;;;;19.97;64.12;101622.59;682644;28;1470;-78
2023/08/21 00:51:27;;;;;;;6.10;3.10;;;;;;;20.02;64.17;101627.91;678896;29;1225;-77
2023/08/21 00:51:50;;;;;;;6.30;3.40;;;;;;;20.00;64.14;101628.78;681873;29;2046;-77
2023/08/21 00:52:12;;;;;;;6.20;3.53;;;;;;;20.08;64.10;101635.84;682462;28;1134;-77
2023/08/21 00:52:40;;;;;;;6.28;3.40;;;;;;;20.02;64.05;101627.91;680026;28;1135;-76
2023/08/21 00:53:02;;;;;;;5.88;3.10;;;;;;;19.99;63.98;101619.06;682547;29;923;-77
2023/08/21 00:53:24;;;;;;;6.63;3.20;;;;;;;19.94;64.08;101610.25;674673;29;1248;-77
2023/08/21 00:53:45;;;;;;;8.25;3.58;;;;;;;20.01;63.96;101627.03;683888;28;1547;-76
2023/08/21 00:54:07;;;;;;;8.40;3.58;;;;;;;20.03;64.04;101627.91;683294;28;1021;-77
2023/08/21 00:54:29;;;;;;;7.90;3.60;;;;;;;20.04;64.08;101627.03;682458;29;913;-76
2023/08/21 00:54:50;;;;;;;9.02;3.50;;;;;;;20.07;64.01;101636.75;676993;29;1447;-77
2023/08/21 00:55:12;;;;;;;9.35;3.60;;;;;;;20.02;64.01;101619.97;682012;29;995;-76
2023/08/21 00:55:34;;;;;;;10.63;3.78;;;;;;;19.97;63.96;101617.28;679397;29;1185;-76
2023/08/21 00:55:55;;;;;;;8.15;3.42;;;;;;;20.00;63.98;101628.78;682125;29;1390;-77
2023/08/21 00:56:16;;;;;;;9.85;3.33;;;;;;;20.05;63.84;101628.81;682317;29;1139;-76
2023/08/21 00:56:37;;;;;;;9.77;3.28;;;;;;;20.09;63.91;101634.97;687822;28;1106;-76
2023/08/21 00:56:57;;;;;;;9.25;3.20;;;;;;;20.03;63.84;101622.59;687283;28;1297;-76
2023/08/21 00:57:20;;;;;;;6.70;3.10;;;;;;;20.03;63.88;101629.69;687615;28;1694;-76
2023/08/21 00:57:41;;;;;;;6.25;3.05;;;;;;;19.98;63.98;101622.59;683856;28;1113;-76
2023/08/21 00:58:05;;;;;;;5.97;3.10;;;;;;;20.05;63.78;101625.25;679554;29;1401;-77
2023/08/21 00:58:27;;;;;;;6.32;3.25;;;;;;;20.02;63.91;101620.84;679983;29;1058;-76
2023/08/21 00:58:47;;;;;;;6.03;3.35;;;;;;;20.03;64.07;101630.56;682598;28;1250;-77
2023/08/21 00:59:09;;;;;;;6.22;3.33;;;;;;;20.07;63.70;101635.00;685342;28;1974;-77
2023/08/21 00:59:30;;;;;;;5.32;3.17;;;;;;;20.05;63.98;101628.81;685048;28;1136;-76
2023/08/21 00:59:51;;;;;;;6.72;3.10;;;;;;;20.05;64.21;101625.25;685076;28;1284;-76
2023/08/21 01:00:13;;;;;;;6.80;3.05;;;;;;;20.04;63.98;101626.16;685792;28;1065;-76
2023/08/21 01:00:35;;;;;;;7.07;3.00;;;;;;;20.06;64.06;101619.09;686290;28;1468;-76
2023/08/21 01:00:57;;;;;;;5.70;2.97;;;;;;;20.02;64.09;101617.31;684660;28;942;-77
2023/08/21 01:01:24;;;;;;;5.70;3.10;;;;;;;20.08;63.95;101627.91;680818;29;1005;-77
2023/08/21 01:01:46;;;;;;;6.03;3.10;;;;;;;20.05;64.05;101622.63;682565;28;1257;-77
2023/08/21 01:02:06;;;;;;;7.07;3.40;;;;;;;20.00;64.11;101614.66;682447;29;1048;-77
2023/08/21 01:02:27;;;;;;;6.85;3.30;;;;;;;20.08;64.00;101627.91;681892;28;1290;-76
2023/08/21 01:02:48;;;;;;;5.40;3.10;;;;;;;20.03;63.88;101625.25;682281;28;1806;-76
2023/08/21 01:03:09;;;;;;;4.93;3.00;;;;;;;20.02;64.20;101612.03;679993;29;1070;-76
2023/08/21 01:03:29;;;;;;;5.47;3.33;;;;;;;20.06;64.25;101622.63;679806;29;1356;-77
2023/08/21 01:03:50;;;;;;;6.85;3.47;;;;;;;20.10;64.28;101626.16;682086;29;1226;-76
2023/08/21 01:04:11;;;;;;;7.38;3.58;;;;;;;20.10;64.30;101623.53;682490;29;976;-76
2023/08/21 01:04:47;;;;;;;10.13;3.40;;;;;;;20.06;64.26;101619.97;683625;28;1182;-77
2023/08/21 01:05:08;;;;;;;10.18;3.63;;;;;;;20.06;64.25;101621.72;687339;28;1009;-77
2023/08/21 01:05:29;;;;;;;6.55;3.60;;;;;;;20.04;64.34;101618.22;687806;28;1016;-76
2023/08/21 01:05:51;;;;;;;6.63;3.47;;;;;;;20.09;64.15;101630.56;686206;28;1519;-76
2023/08/21 01:06:12;;;;;;;7.90;3.55;;;;;;;20.06;64.44;101619.97;685233;28;1988;-77
2023/08/21 01:06:32;;;;;;;7.72;3.53;;;;;;;20.04;64.27;101623.50;687526;28;1226;-76
2023/08/21 01:06:53;;;;;;;10.03;3.60;;;;;;;20.05;64.14;101619.97;684565;28;1634;-76
2023/08/21 01:07:14;;;;;;;9.45;3.33;;;;;;;20.11;64.12;101633.22;682316;28;1057;-76
2023/08/21 01:07:45;;;;;;;9.52;3.40;;;;;;;20.02;64.24;101623.50;687973;28;1051;-76
2023/08/21 01:08:17;;;;;;;5.28;2.95;;;;;;;20.03;64.10;101629.69;686275;28;1164;-76
2023/08/21 01:09:03;;;;;;;5.20;2.75;;;;;;;20.09;64.20;101633.22;687206;28;1214;-77
2023/08/21 01:09:44;;;;;;;5.50;2.85;;;;;;;19.92;64.46;101627.88;685795;28;1316;-77
2023/08/21 01:10:23;;;;;;;6.13;3.20;;;;;;;19.85;64.48;101618.09;679631;29;1124;-76
2023/08/21 01:10:52;;;;;;;13.82;3.50;;;;;;;20.00;64.22;101639.38;678799;29;1149;-77
2023/08/21 01:11:19;;;;;;;6.40;3.35;;;;;;;20.00;64.30;101642.03;675472;29;1335;-76
2023/08/21 01:11:49;;;;;;;5.90;3.25;;;;;;;19.95;64.23;101625.25;678514;29;1036;-76
2023/08/21 01:12:35;;;;;;;8.68;3.40;;;;;;;19.92;64.18;101627.88;684510;28;1102;-76
2023/08/21 01:13:06;;;;;;;7.78;3.25;;;;;;;19.91;64.26;101619.94;687766;28;1042;-77
2023/08/21 01:13:39;;;;;;;9.13;3.20;;;;;;;20.00;64.15;101642.03;687207;28;2070;-76
2023/08/21 01:14:33;;;;;;;9.43;3.13;;;;;;;19.97;64.28;101639.38;682552;28;1179;-77
2023/08/21 01:15:00;;;;;;;7.20;3.25;;;;;;;19.95;64.46;101638.50;679468;29;1058;-76
2023/08/21 01:15:21;;;;;;;6.00;3.40;;;;;;;19.92;64.49;101633.16;681145;29;1094;-76
2023/08/21 01:15:44;;;;;;;6.18;3.30;;;;;;;19.90;64.23;101624.34;679152;29;1413;-76
2023/08/21 01:16:08;;;;;;;5.15;3.00;;;;;;;19.88;64.49;101626.13;682553;28;1026;-76
2023/08/21 01:16:29;;;;;;;4.80;2.80;;;;;;;19.87;64.36;101621.66;679854;29;966;-77
2023/08/21 01:16:55;;;;;;;5.10;3.10;;;;;;;19.87;64.28;101617.22;682317;29;1073;-77
2023/08/21 01:17:17;;;;;;;6.10;3.20;;;;;;;19.98;64.39;101649.09;674330;29;2078;-77
2023/08/21 01:17:39;;;;;;;7.32;3.30;;;;;;;19.93;64.39;101628.78;681844;28;1033;-77
2023/08/21 01:18:01;;;;;;;8.32;3.25;;;;;;;19.93;64.43;101631.41;684885;28;1033;-76
2023/08/21 01:18:22;;;;;;;8.48;3.25;;;;;;;19.96;64.54;101639.38;684042;28;995;-76
2023/08/21 01:18:46;;;;;;;7.35;2.95;;;;;;;19.94;64.34;101633.19;686948;28;1120;-77
2023/08/21 01:19:16;;;;;;;6.47;2.80;;;;;;;19.87;64.50;101625.19;680629;28;1984;-76
2023/08/21 01:19:41;;;;;;;8.32;3.10;;;;;;;19.94;64.43;101635.84;680699;29;1037;-76
2023/08/21 01:20:03;;;;;;;8.07;3.08;;;;;;;19.93;64.63;101637.63;682387;29;1082;-77
2023/08/21 01:20:23;;;;;;;7.07;3.10;;;;;;;19.89;64.51;101633.19;677172;29;1074;-76
2023/08/21 01:20:44;;;;;;;8.43;3.10;;;;;;;19.94;64.47;101625.25;677130;29;1228;-76
2023/08/21 01:21:05;;;;;;;8.73;3.17;;;;;;;19.98;64.54;101642.94;679068;29;1774;-77
2023/08/21 01:21:27;;;;;;;8.77;3.00;;;;;;;19.93;64.67;101634.06;684528;28;1675;-77
2023/08/21 01:21:47;;;;;;;7.10;2.90;;;;;;;19.92;64.52;101634.97;686732;28;1432;-77
2023/08/21 01:22:08;;;;;;;6.47;2.97;;;;;;;19.92;64.67;101632.31;682579;28;1376;-76
2023/08/21 01:22:39;;;;;;;6.78;3.10;;;;;;;19.86;64.66;101623.41;676910;29;1713;-76
2023/08/21 01:23:05;;;;;;;7.00;3.20;;;;;;;19.90;64.86;101629.66;679664;29;1154;-76
2023/08/21 01:23:36;;;;;;;5.82;3.10;;;;;;;19.97;64.88;101639.38;679786;29;951;-77
2023/08/21 01:23:57;;;;;;;5.38;3.20;;;;;;;19.92;64.93;101638.47;683318;28;1051;-77
2023/08/21 01:24:20;;;;;;;5.55;3.20;;;;;;;19.89;65.08;101632.28;684127;28;1115;-76
2023/08/21 01:24:40;;;;;;;5.40;3.30;;;;;;;19.84;65.08;101629.59;683640;28;1495;-76
2023/08/21 01:25:01;;;;;;;6.30;3.33;;;;;;;19.87;64.90;101634.91;685373;28;1053;-76
2023/08/21 01:25:22;;;;;;;7.47;3.40;;;;;;;19.88;64.99;101634.06;682495;28;1237;-77
2023/08/21 01:25:43;;;;;;;8.70;3.25;;;;;;;19.88;64.72;101631.41;679172;29;1239;-77
2023/08/21 01:26:05;;;;;;;8.10;3.03;;;;;;;19.89;64.97;101635.81;679981;29;993;-76
2023/08/21 01:26:25;;;;;;;8.77;3.20;;;;;;;19.80;64.86;101619.88;677973;29;957;-76
2023/08/21 01:26:47;;;;;;;7.35;2.97;;;;;;;19.72;65.22;101622.50;681917;29;1060;-77
2023/08/21 01:27:10;;;;;;;7.63;3.10;;;;;;;19.77;65.12;101633.09;681294;29;1419;-76
2023/08/21 01:27:32;;;;;;;6.55;3.30;;;;;;;19.81;65.09;101640.19;683604;28;1110;-75
2023/08/21 01:27:53;;;;;;;7.30;3.40;;;;;;;19.80;64.86;101627.81;682566;29;1143;-77
2023/08/21 01:28:13;;;;;;;7.03;3.10;;;;;;;19.80;64.99;101630.47;680001;29;1442;-76
2023/08/21 01:28:35;;;;;;;7.80;2.90;;;;;;;19.80;64.92;101633.13;680731;29;957;-75
2023/08/21 01:28:56;;;;;;;8.13;3.08;;;;;;;19.78;64.92;101626.94;680322;29;1375;-77
2023/08/21 01:29:17;;;;;;;8.87;3.30;;;;;;;19.76;64.89;101618.09;677406;29;1014;-77
2023/08/21 01:29:38;;;;;;;11.60;3.60;;;;;;;19.75;64.73;101619.88;683274;28;1355;-77
2023/08/21 01:30:00;;;;;;;10.90;3.50;;;;;;;19.76;64.81;101621.63;682640;28;1414;-77
2023/08/21 01:30:21;;;;;;;10.40;3.60;;;;;;;19.75;64.78;101624.25;677357;29;1335;-76
2023/08/21 01:30:43;;;;;;;7.50;3.30;;;;;;;19.72;64.83;101623.38;676645;29;1319;-75
2023/08/21 01:31:24;;;;;;;7.45;3.40;;;;;;;19.72;64.75;101626.03;682610;28;1537;-76
2023/08/21 01:31:50;;;;;;;7.35;3.10;;;;;;;19.76;64.90;101637.53;682626;29;1210;-75
2023/08/21 01:32:16;;;;;;;6.32;2.80;;;;;;;19.77;64.75;101635.75;681919;29;1555;-76
2023/08/21 01:33:07;;;;;;;5.28;3.15;;;;;;;19.67;64.85;101627.78;681030;29;1064;-76
2023/08/21 01:33:33;;;;;;;6.13;3.10;;;;;;;19.70;64.88;101638.38;683959;28;1095;-77
2023/08/21 01:33:59;;;;;;;7.22;3.40;;;;;;;19.69;65.02;101631.34;685458;28;1113;-77
2023/08/21 01:34:21;;;;;;;7.68;3.40;;;;;;;19.66;65.05;101631.31;681410;28;2028;-77
2023/08/21 01:34:42;;;;;;;8.38;3.30;;;;;;;19.68;64.97;101640.13;676531;29;2862;-77
2023/08/21 01:35:05;;;;;;;8.38;3.20;;;;;;;19.68;65.13;101640.13;678746;29;2497;-77
2023/08/21 01:35:29;;;;;;;8.32;3.20;;;;;;;19.62;65.20;101628.63;676774;29;1229;-76
2023/08/21 01:35:51;;;;;;;7.53;3.10;;;;;;;19.65;65.12;101639.22;681802;28;1982;-76
2023/08/21 01:36:12;;;;;;;7.80;3.33;;;;;;;19.69;65.10;101641.91;685036;28;1040;-77
2023/08/21 01:36:34;;;;;;;7.97;3.63;;;;;;;19.68;65.14;101634.84;684807;28;1489;-77
2023/08/21 01:36:56;;;;;;;10.48;3.88;;;;;;;19.66;65.17;101638.38;684919;28;1906;-77
2023/08/21 01:37:17;;;;;;;10.25;3.63;;;;;;;19.71;65.29;101644.56;684123;28;1102;-77
2023/08/21 01:37:38;;;;;;;9.57;3.08;;;;;;;19.67;65.33;101638.34;686603;28;1453;-77
2023/08/21 01:37:59;;;;;;;9.13;3.00;;;;;;;19.75;65.33;101648.09;685281;28;1061;-77
2023/08/21 01:38:22;;;;;;;7.50;2.95;;;;;;;19.76;65.22;101649.88;679789;29;1203;-77
2023/08/21 01:38:44;;;;;;;7.38;3.47;;;;;;;19.71;65.32;101640.16;684708;28;1226;-76
2023/08/21 01:39:06;;;;;;;5.40;3.63;;;;;;;19.73;65.20;101638.38;687818;28;1911;-77
2023/08/21 01:39:28;;;;;;;5.72;3.75;;;;;;;19.80;65.25;101646.38;685388;28;1536;-77
2023/08/21 01:39:48;;;;;;;6.30;3.80;;;;;;;19.77;65.25;101644.59;680776;29;1262;-77
2023/08/21 01:40:09;;;;;;;6.78;3.47;;;;;;;19.76;65.14;101633.97;678046;29;1641;-77
2023/08/21 01:40:30;;;;;;;8.13;3.47;;;;;;;19.87;65.13;101650.81;679670;29;1578;-77
2023/08/21 01:40:53;;;;;;;7.90;3.35;;;;;;;19.84;65.07;101645.47;684749;28;1532;-77
2023/08/21 01:41:14;;;;;;;7.53;3.60;;;;;;;19.87;65.18;101648.16;687660;28;1206;-77
2023/08/21 01:41:45;;;;;;;6.60;3.55;;;;;;;19.94;64.91;101646.44;687942;28;1196;-77
2023/08/21 01:42:06;;;;;;;6.88;3.63;;;;;;;19.95;64.83;101643.78;684713;28;1152;-77
2023/08/21 01:42:27;;;;;;;7.38;3.47;;;;;;;19.99;65.11;101656.16;685102;28;905;-77
2023/08/21 01:42:48;;;;;;;9.85;3.25;;;;;;;19.95;64.92;101649.09;687687;28;1218;-77
2023/08/21 01:43:08;;;;;;;10.63;3.30;;;;;;;19.98;64.81;101649.09;687616;28;1361;-77
2023/08/21 01:43:29;;;;;;;10.48;3.35;;;;;;;20.05;64.90;101654.41;687816;28;994;-77
2023/08/21 01:43:50;;;;;;;7.80;3.75;;;;;;;20.05;64.70;101650.00;679768;29;1305;-77
2023/08/21 01:44:11;;;;;;;8.30;3.50;;;;;;;20.06;64.63;101645.56;681712;28;1749;-77
2023/08/21 01:44:31;;;;;;;7.28;3.35;;;;;;;20.04;64.76;101642.91;679767;28;1187;-77
2023/08/21 01:45:12;;;;;;;7.00;3.23;;;;;;;20.13;64.71;101652.66;682594;29;1170;-77
2023/08/21 01:45:33;;;;;;;6.78;3.60;;;;;;;20.09;64.72;101646.47;682560;28;1020;-77
2023/08/21 01:45:54;;;;;;;6.82;3.47;;;;;;;20.04;64.67;101636.75;682331;29;879;-76
2023/08/21 01:46:15;;;;;;;6.88;3.30;;;;;;;20.06;64.63;101640.28;684888;28;1833;-77
2023/08/21 01:46:36;;;;;;;11.93;3.38;;;;;;;20.12;64.73;101658.84;679527;29;1699;-77